createdAt,value
2023-03-08T00:01:58.571Z,86.42
2023-03-08T00:04:27.968Z,86.73
2023-03-08T00:07:00.140Z,85.84
2023-03-08T00:09:29.394Z,85.88
2023-03-08T00:12:00.574Z,85.86
2023-03-08T00:14:32.172Z,85.83
2023-03-08T00:17:03.165Z,86.32
2023-03-08T00:19:32.623Z,85.71
2023-03-08T00:22:01.889Z,85.51
2023-03-08T00:24:31.497Z,86.02
2023-03-08T00:27:01.121Z,86.34
2023-03-08T00:29:32.132Z,86.56
2023-03-08T00:32:02.465Z,85.97
2023-03-08T00:34:32.305Z,86.15
2023-03-08T00:37:05.888Z,86.22
2023-03-08T00:39:36.075Z,85.77
2023-03-08T00:42:18.385Z,85.85
2023-03-08T00:44:54.502Z,85.40
2023-03-08T00:47:23.803Z,85.47
2023-03-08T00:49:53.022Z,86.39
2023-03-08T00:52:29.856Z,86.95
2023-03-08T00:54:59.673Z,86.94
2023-03-08T00:57:38.979Z,87.32
2023-03-08T01:00:11.900Z,87.35
2023-03-08T01:02:42.760Z,87.71
2023-03-08T01:05:11.852Z,87.63
2023-03-08T01:07:42.288Z,87.87
2023-03-08T01:10:12.787Z,87.82
2023-03-08T01:12:42.998Z,87.31
2023-03-08T01:15:12.379Z,87.52
2023-03-08T01:17:45.672Z,88.19
2023-03-08T01:20:14.811Z,87.51
2023-03-08T01:22:48.636Z,88.02
2023-03-08T01:25:20.875Z,88.25
2023-03-08T01:27:56.288Z,87.95
2023-03-08T01:30:28.346Z,88.00
2023-03-08T01:32:57.749Z,88.16
2023-03-08T01:35:29.904Z,88.34
2023-03-08T01:37:58.957Z,88.36
2023-03-08T01:40:28.054Z,89.13
2023-03-08T01:42:57.746Z,88.59
2023-03-08T01:46:05.345Z,88.90
2023-03-08T01:48:41.352Z,88.74
2023-03-08T01:51:19.438Z,88.72
2023-03-08T01:53:51.567Z,88.35
2023-03-08T01:56:22.184Z,88.73
2023-03-08T01:58:52.687Z,88.49
2023-03-08T02:01:22.629Z,88.27
2023-03-08T02:03:52.741Z,87.45
2023-03-08T02:06:23.649Z,87.52
2023-03-08T02:08:54.143Z,88.58
2023-03-08T02:11:25.247Z,87.91
2023-03-08T02:13:56.496Z,88.49
2023-03-08T02:16:26.689Z,87.81
2023-03-08T02:19:00.669Z,88.74
2023-03-08T02:21:32.860Z,89.95
2023-03-08T02:24:23.749Z,88.57
2023-03-08T02:27:01.346Z,89.20
2023-03-08T02:29:31.601Z,88.54
2023-03-08T02:32:02.998Z,87.65
2023-03-08T02:34:34.063Z,88.08
2023-03-08T02:37:03.613Z,89.96
2023-03-08T02:39:33.873Z,89.44
2023-03-08T02:42:04.018Z,88.35
2023-03-08T02:44:33.312Z,89.18
2023-03-08T02:47:02.766Z,88.94
2023-03-08T02:49:32.167Z,89.09
2023-03-08T02:52:01.729Z,89.46
2023-03-08T02:54:30.934Z,89.31
2023-03-08T02:57:02.799Z,89.01
2023-03-08T02:59:33.314Z,88.97
2023-03-08T03:02:03.461Z,88.95
2023-03-08T03:04:34.906Z,89.19
2023-03-08T03:07:06.622Z,88.90
2023-03-08T03:09:37.341Z,88.84
2023-03-08T03:12:07.865Z,88.74
2023-03-08T03:14:39.379Z,89.36
2023-03-08T03:17:09.377Z,89.02
2023-03-08T03:19:39.484Z,88.94
2023-03-08T03:22:08.741Z,88.82
2023-03-08T03:24:39.971Z,89.24
2023-03-08T03:27:09.802Z,88.81
2023-03-08T03:29:42.725Z,88.42
2023-03-08T03:32:14.966Z,88.60
2023-03-08T03:34:44.443Z,88.26
2023-03-08T03:37:14.825Z,88.39
2023-03-08T03:39:44.036Z,87.91
2023-03-08T03:42:16.523Z,88.38
2023-03-08T03:44:54.102Z,88.71
2023-03-08T03:47:24.595Z,89.09
2023-03-08T03:49:57.055Z,89.69
2023-03-08T03:52:27.868Z,89.37
2023-03-08T03:55:02.265Z,88.77
2023-03-08T03:57:32.513Z,88.90
2023-03-08T04:00:02.217Z,89.36
2023-03-08T04:02:44.007Z,88.47
2023-03-08T04:05:16.660Z,88.76
2023-03-08T04:07:56.866Z,88.81
2023-03-08T04:10:29.047Z,89.23
2023-03-08T04:13:00.296Z,89.21
2023-03-08T04:15:31.425Z,89.41
2023-03-08T04:18:02.220Z,89.50
2023-03-08T04:20:32.361Z,89.70
2023-03-08T04:23:07.213Z,89.95
2023-03-08T04:25:51.283Z,89.64
2023-03-08T04:28:24.748Z,89.86
2023-03-08T04:30:57.435Z,89.71
2023-03-08T04:33:38.166Z,89.73
2023-03-08T04:36:08.929Z,90.29
2023-03-08T04:38:40.872Z,90.20
2023-03-08T04:41:14.341Z,89.75
2023-03-08T04:44:04.787Z,90.05
2023-03-08T04:46:40.890Z,90.32
2023-03-08T04:49:11.610Z,89.91
2023-03-08T04:51:45.789Z,89.27
2023-03-08T04:54:16.528Z,89.39
2023-03-08T04:56:50.748Z,89.32
2023-03-08T04:59:22.067Z,89.28
2023-03-08T05:01:52.498Z,89.62
2023-03-08T05:04:24.027Z,89.34
2023-03-08T05:06:54.564Z,88.99
2023-03-08T05:09:27.526Z,88.67
2023-03-08T05:11:58.936Z,88.63
2023-03-08T05:14:35.883Z,88.03
2023-03-08T05:17:05.687Z,88.11
2023-03-08T05:19:37.410Z,88.62
2023-03-08T05:22:09.446Z,88.60
2023-03-08T05:24:46.612Z,89.31
2023-03-08T05:27:19.199Z,88.45
2023-03-08T05:29:48.479Z,88.53
2023-03-08T05:32:19.156Z,89.67
2023-03-08T05:34:48.277Z,89.56
2023-03-08T05:37:27.513Z,89.32
2023-03-08T05:39:59.940Z,89.13
2023-03-08T05:42:33.278Z,89.74
2023-03-08T05:45:03.095Z,90.19
2023-03-08T05:47:35.684Z,90.38
2023-03-08T05:50:06.164Z,90.02
2023-03-08T05:52:37.194Z,90.54
2023-03-08T05:55:07.398Z,90.06
2023-03-08T05:57:37.533Z,90.54
2023-03-08T06:00:09.369Z,92.09
2023-03-08T06:02:44.839Z,91.36
2023-03-08T06:05:17.244Z,90.58
2023-03-08T06:07:47.282Z,90.68
2023-03-08T06:10:18.402Z,90.31
2023-03-08T06:12:48.869Z,90.93
2023-03-08T06:15:22.321Z,91.09
2023-03-08T06:17:55.610Z,90.78
2023-03-08T06:20:29.112Z,90.51
2023-03-08T06:23:04.196Z,90.78
2023-03-08T06:25:36.097Z,91.05
2023-03-08T06:28:05.723Z,90.85
2023-03-08T06:30:42.744Z,90.22
2023-03-08T06:33:13.994Z,89.37
2023-03-08T06:35:56.454Z,89.63
2023-03-08T06:38:29.868Z,89.36
2023-03-08T06:41:00.548Z,89.41
2023-03-08T06:43:30.862Z,90.04
2023-03-08T06:46:05.338Z,90.42
2023-03-08T06:48:36.373Z,90.45
2023-03-08T06:51:06.600Z,90.88
2023-03-08T06:53:38.708Z,90.80
2023-03-08T06:56:14.952Z,90.28
2023-03-08T06:58:44.443Z,90.51
2023-03-08T07:01:14.764Z,90.50
2023-03-08T07:03:45.819Z,90.14
2023-03-08T07:06:15.897Z,90.00
2023-03-08T07:08:48.867Z,89.56
2023-03-08T07:11:18.308Z,89.49
2023-03-08T07:13:47.862Z,89.09
2023-03-08T07:16:17.485Z,88.92
2023-03-08T07:18:46.839Z,89.08
2023-03-08T07:21:18.165Z,88.83
2023-03-08T07:23:56.881Z,89.12
2023-03-08T07:26:36.697Z,89.55
2023-03-08T07:29:10.545Z,89.49
2023-03-08T07:31:45.785Z,89.16
2023-03-08T07:34:15.755Z,88.93
2023-03-08T07:36:51.479Z,89.05
2023-03-08T07:39:23.483Z,89.52
2023-03-08T07:41:55.970Z,89.53
2023-03-08T07:44:28.258Z,89.63
2023-03-08T07:46:57.468Z,89.45
2023-03-08T07:49:27.813Z,89.11
2023-03-08T07:51:57.972Z,88.40
2023-03-08T07:55:33.182Z,88.64
2023-03-08T07:58:09.478Z,88.81
2023-03-08T08:00:38.799Z,89.28
2023-03-08T08:03:08.856Z,88.62
2023-03-08T08:05:38.796Z,88.29
2023-03-08T08:08:09.601Z,87.53
2023-03-08T08:10:42.267Z,85.83
2023-03-08T08:13:12.548Z,85.35
2023-03-08T08:15:42.278Z,84.62
2023-03-08T08:18:11.473Z,83.73
2023-03-08T08:20:40.544Z,82.75
2023-03-08T08:23:10.267Z,82.07
2023-03-08T08:25:41.172Z,79.26
2023-03-08T08:28:10.338Z,78.21
2023-03-08T08:30:39.941Z,77.49
2023-03-08T08:33:09.627Z,76.17
2023-03-08T08:35:43.566Z,71.65
2023-03-08T08:38:15.641Z,71.75
2023-03-08T08:40:45.472Z,73.54
2023-03-08T08:43:15.171Z,73.38
2023-03-08T08:45:50.086Z,72.29
2023-03-08T08:48:19.905Z,71.01
2023-03-08T08:50:50.011Z,68.05
2023-03-08T08:53:21.022Z,68.91
2023-03-08T08:55:50.700Z,67.52
2023-03-08T08:58:21.630Z,65.14
2023-03-08T09:00:51.509Z,66.78
2023-03-08T09:03:21.172Z,64.34
2023-03-08T09:05:50.337Z,60.07
2023-03-08T09:08:19.671Z,62.60
2023-03-08T09:10:49.884Z,62.36
2023-03-08T09:13:19.326Z,61.30
2023-03-08T09:15:48.378Z,60.03
2023-03-08T09:18:17.705Z,59.61
2023-03-08T09:20:47.152Z,55.93
2023-03-08T09:23:16.671Z,55.67
2023-03-08T09:25:46.836Z,55.20
2023-03-08T09:28:51.608Z,53.63
2023-03-08T09:31:20.996Z,52.56
2023-03-08T09:33:52.399Z,52.41
2023-03-08T09:36:21.891Z,52.26
2023-03-08T09:38:52.747Z,51.46
2023-03-08T09:41:43.570Z,51.19
2023-03-08T09:44:35.435Z,51.38
2023-03-08T09:47:25.460Z,52.10
2023-03-08T09:50:03.442Z,52.73
2023-03-08T09:52:39.097Z,53.23
2023-03-08T09:55:32.052Z,53.91
2023-03-08T09:58:17.376Z,54.22
2023-03-08T10:00:47.917Z,53.15
2023-03-08T10:03:36.498Z,53.69
2023-03-08T10:06:35.382Z,52.60
2023-03-08T10:09:24.689Z,52.15
2023-03-08T10:12:13.423Z,51.25
2023-03-08T10:14:50.068Z,50.94
2023-03-08T10:17:34.508Z,50.40
2023-03-08T10:20:23.043Z,50.22
2023-03-08T10:23:02.312Z,49.87
2023-03-08T10:25:34.521Z,49.63
2023-03-08T10:28:12.015Z,49.32
2023-03-08T10:30:49.984Z,49.89
2023-03-08T10:33:24.811Z,50.58
2023-03-08T10:36:18.349Z,50.94
2023-03-08T10:39:04.551Z,51.32
2023-03-08T10:41:51.985Z,51.04
2023-03-08T10:44:40.968Z,50.72
2023-03-08T10:47:27.265Z,51.07
2023-03-08T10:50:13.695Z,51.33
2023-03-08T10:52:46.575Z,50.59
2023-03-08T10:55:20.695Z,50.89
2023-03-08T10:57:58.289Z,51.00
2023-03-08T11:00:41.218Z,51.84
2023-03-08T11:03:24.888Z,52.22
2023-03-08T11:06:01.513Z,51.80
2023-03-08T11:08:34.566Z,51.53
2023-03-08T11:11:05.863Z,51.68
2023-03-08T11:13:38.904Z,51.84
2023-03-08T11:16:32.717Z,52.03
2023-03-08T11:19:23.835Z,52.23
2023-03-08T11:22:09.723Z,52.38
2023-03-08T11:25:04.258Z,52.22
2023-03-08T11:28:08.829Z,51.55
2023-03-08T11:31:02.107Z,51.00
2023-03-08T11:33:43.221Z,50.35
2023-03-08T11:36:25.814Z,50.47
2023-03-08T11:39:26.732Z,49.58
2023-03-08T11:42:25.711Z,48.83
2023-03-08T11:45:22.498Z,48.22
2023-03-08T11:48:07.126Z,47.64
2023-03-08T11:51:24.923Z,47.42
2023-03-08T11:54:17.779Z,46.14
2023-03-08T11:56:53.380Z,46.29
2023-03-08T11:59:43.035Z,45.09
2023-03-08T12:02:30.888Z,44.59
2023-03-08T12:05:18.840Z,44.34
2023-03-08T12:08:43.342Z,43.90
2023-03-08T12:11:25.406Z,43.25
2023-03-08T12:14:07.026Z,42.06
2023-03-08T12:17:22.655Z,41.62
2023-03-08T12:19:53.924Z,42.04
2023-03-08T12:22:42.736Z,42.25
2023-03-08T12:25:26.266Z,41.53
2023-03-08T12:28:13.733Z,40.20
2023-03-08T12:31:24.841Z,39.96
2023-03-08T12:34:28.538Z,39.67
2023-03-08T12:37:22.456Z,39.42
2023-03-08T12:40:09.301Z,40.03
2023-03-08T12:42:42.058Z,40.22
2023-03-08T12:45:20.299Z,41.84
2023-03-08T12:48:18.055Z,43.19
2023-03-08T12:51:13.945Z,43.92
2023-03-08T12:53:57.314Z,43.55
2023-03-08T12:56:54.042Z,43.63
2023-03-08T12:59:31.970Z,44.43
2023-03-08T13:02:23.750Z,43.59
2023-03-08T13:05:33.176Z,44.22
2023-03-08T13:08:19.693Z,44.03
2023-03-08T13:11:30.740Z,44.38
2023-03-08T13:14:43.618Z,45.19
2023-03-08T13:17:50.506Z,45.85
2023-03-08T13:21:07.382Z,46.68
2023-03-08T13:24:15.738Z,46.82
2023-03-08T13:27:12.721Z,47.78
2023-03-08T13:29:47.250Z,48.10
2023-03-08T13:32:21.167Z,47.48
2023-03-08T13:35:04.324Z,47.24
2023-03-08T13:37:40.798Z,47.43
2023-03-08T13:40:26.270Z,47.62
2023-03-08T13:43:09.168Z,47.42
2023-03-08T13:45:55.086Z,46.47
2023-03-08T13:48:42.357Z,42.89
2023-03-08T13:51:19.740Z,42.94
2023-03-08T13:54:04.484Z,43.16
2023-03-08T13:56:40.178Z,43.09
2023-03-08T13:59:23.279Z,43.62
2023-03-08T14:02:11.935Z,43.53
2023-03-08T14:05:05.200Z,44.15
2023-03-08T14:07:58.993Z,44.75
2023-03-08T14:10:42.793Z,44.68
2023-03-08T14:13:29.657Z,45.06
2023-03-08T14:16:05.705Z,45.18
2023-03-08T14:18:43.854Z,45.20
2023-03-08T14:21:25.978Z,44.88
2023-03-08T14:23:59.494Z,45.18
2023-03-08T14:26:39.349Z,45.19
2023-03-08T14:29:37.838Z,44.99
2023-03-08T14:32:19.199Z,45.03
2023-03-08T14:34:58.706Z,45.39
2023-03-08T14:38:00.796Z,45.72
2023-03-08T14:40:32.206Z,46.07
2023-03-08T14:43:26.747Z,46.81
2023-03-08T14:46:04.493Z,46.24
2023-03-08T14:48:52.340Z,46.28
2023-03-08T14:51:53.536Z,46.71
2023-03-08T14:54:36.730Z,46.40
2023-03-08T14:57:30.458Z,46.54
2023-03-08T15:00:18.677Z,46.57
2023-03-08T15:02:52.840Z,46.84
2023-03-08T15:05:29.077Z,47.01
2023-03-08T15:08:03.578Z,47.17
2023-03-08T15:10:37.999Z,47.32
2023-03-08T15:13:17.690Z,47.37
2023-03-08T15:15:51.084Z,47.52
2023-03-08T15:18:21.426Z,47.68
2023-03-08T15:20:53.117Z,47.77
2023-03-08T15:23:26.784Z,47.86
2023-03-08T15:25:58.456Z,47.64
2023-03-08T15:28:27.631Z,47.79
2023-03-08T15:30:56.845Z,47.92
2023-03-08T15:33:29.187Z,48.03
2023-03-08T15:35:59.239Z,47.97
2023-03-08T15:38:29.222Z,48.24
2023-03-08T15:41:02.957Z,48.59
2023-03-08T15:43:47.770Z,48.74
2023-03-08T15:46:20.213Z,48.47
2023-03-08T15:48:51.532Z,49.70
2023-03-08T15:51:28.553Z,50.65
2023-03-08T15:54:02.431Z,51.78
2023-03-08T15:56:32.140Z,52.45
2023-03-08T15:59:02.660Z,53.12
2023-03-08T16:01:40.663Z,53.94
2023-03-08T16:04:12.602Z,54.38
2023-03-08T16:06:44.142Z,54.48
2023-03-08T16:09:18.117Z,54.54
2023-03-08T16:11:49.326Z,54.89
2023-03-08T16:14:19.115Z,55.28
2023-03-08T16:16:49.117Z,56.01
2023-03-08T16:19:18.462Z,56.15
2023-03-08T16:21:50.664Z,56.39
2023-03-08T16:24:20.338Z,56.30
2023-03-08T16:26:54.784Z,56.23
2023-03-08T16:29:26.990Z,56.22
2023-03-08T16:32:01.307Z,56.02
2023-03-08T16:34:30.847Z,56.08
2023-03-08T16:37:00.012Z,56.12
2023-03-08T16:39:30.373Z,56.69
2023-03-08T16:42:00.399Z,56.73
2023-03-08T16:44:35.623Z,56.85
2023-03-08T16:47:05.537Z,57.07
2023-03-08T16:49:37.012Z,57.65
2023-03-08T16:52:06.335Z,58.03
2023-03-08T16:54:36.494Z,58.37
2023-03-08T16:57:18.280Z,58.81
2023-03-08T16:59:53.994Z,59.44
2023-03-08T17:02:26.181Z,59.92
2023-03-08T17:05:02.681Z,60.64
2023-03-08T17:07:47.461Z,60.85
2023-03-08T17:10:29.558Z,61.34
2023-03-08T17:13:02.435Z,61.91
2023-03-08T17:15:43.119Z,62.32
2023-03-08T17:18:15.578Z,61.92
2023-03-08T17:20:49.011Z,62.47
2023-03-08T17:23:28.574Z,62.63
2023-03-08T17:26:09.486Z,62.62
2023-03-08T17:28:51.379Z,63.16
2023-03-08T17:31:29.091Z,62.85
2023-03-08T17:34:16.403Z,63.26
2023-03-08T17:36:57.107Z,63.23
2023-03-08T17:39:53.306Z,63.33
2023-03-08T17:45:31.610Z,63.34
2023-03-08T17:48:04.472Z,63.54
2023-03-08T17:50:35.064Z,63.32
2023-03-08T17:53:04.775Z,63.30
2023-03-08T17:55:34.158Z,63.33
2023-03-08T17:58:06.665Z,63.17
2023-03-08T18:00:36.436Z,63.69
2023-03-08T18:03:06.771Z,63.64
2023-03-08T18:05:36.679Z,63.39
2023-03-08T18:08:08.864Z,63.49
2023-03-08T18:10:39.038Z,63.55
2023-03-08T18:13:08.988Z,63.23
2023-03-08T18:15:38.614Z,63.67
2023-03-08T18:18:08.716Z,63.81
2023-03-08T18:20:37.983Z,63.95
2023-03-08T18:23:09.879Z,63.58
2023-03-08T18:25:39.204Z,63.69
2023-03-08T18:28:09.070Z,63.84
2023-03-08T18:30:39.880Z,63.49
2023-03-08T18:33:09.236Z,63.17
2023-03-08T18:35:38.489Z,62.91
2023-03-08T18:38:08.663Z,63.08
2023-03-08T18:40:37.991Z,63.11
2023-03-08T18:43:08.511Z,62.88
2023-03-08T18:45:37.715Z,62.92
2023-03-08T18:48:07.088Z,63.01
2023-03-08T18:51:02.216Z,62.94
2023-03-08T18:53:40.610Z,63.31
2023-03-08T18:56:11.838Z,63.26
2023-03-08T18:58:41.364Z,63.40
2023-03-08T19:01:31.961Z,63.34
2023-03-08T19:04:08.412Z,63.33
2023-03-08T19:06:41.593Z,63.31
2023-03-08T19:09:18.021Z,63.32
2023-03-08T19:12:12.430Z,63.20
2023-03-08T19:14:41.498Z,63.00
2023-03-08T19:17:11.235Z,63.27
2023-03-08T19:19:59.573Z,63.72
2023-03-08T19:22:28.943Z,63.05
2023-03-08T19:24:58.274Z,63.36
2023-03-08T19:27:29.541Z,63.72
2023-03-08T19:29:59.600Z,63.49
2023-03-08T19:32:30.816Z,64.16
2023-03-08T19:35:00.087Z,64.00
2023-03-08T19:37:33.697Z,64.10
2023-03-08T19:40:05.916Z,63.84
2023-03-08T19:42:36.753Z,64.00
2023-03-08T19:45:09.160Z,64.18
2023-03-08T19:47:39.588Z,64.47
2023-03-08T19:50:13.522Z,65.55
2023-03-08T19:52:42.838Z,65.27
2023-03-08T19:55:14.863Z,65.05
2023-03-08T19:57:46.583Z,65.32
2023-03-08T20:00:18.500Z,64.87
2023-03-08T20:02:49.285Z,64.25
2023-03-08T20:05:18.989Z,63.52
2023-03-08T20:07:49.803Z,64.01
2023-03-08T20:10:19.582Z,63.84
2023-03-08T20:12:52.969Z,63.36
2023-03-08T20:15:24.459Z,63.03
2023-03-08T20:17:56.195Z,62.20
2023-03-08T20:20:25.498Z,61.58
2023-03-08T20:22:56.327Z,61.62
2023-03-08T20:25:30.970Z,61.18
2023-03-08T20:28:01.076Z,61.06
2023-03-08T20:30:38.422Z,61.20
2023-03-08T20:33:12.955Z,61.55
2023-03-08T20:35:49.615Z,60.68
2023-03-08T20:38:22.308Z,60.37
2023-03-08T20:41:02.668Z,60.60
2023-03-08T20:43:37.108Z,60.41
2023-03-08T20:46:13.417Z,60.58
2023-03-08T20:48:57.609Z,60.85
2023-03-08T20:51:30.726Z,60.81
2023-03-08T20:54:01.809Z,60.92
2023-03-08T20:56:30.929Z,60.89
2023-03-08T20:59:01.577Z,60.99
2023-03-08T21:01:33.823Z,60.83
2023-03-08T21:04:03.461Z,61.03
2023-03-08T21:06:34.534Z,60.90
2023-03-08T21:09:04.767Z,60.77
2023-03-08T21:11:34.546Z,60.70
2023-03-08T21:14:04.227Z,60.96
2023-03-08T21:16:33.861Z,61.11
2023-03-08T21:19:04.835Z,61.00
2023-03-08T21:21:41.586Z,60.83
2023-03-08T21:24:15.282Z,61.38
2023-03-08T21:26:48.520Z,61.03
2023-03-08T21:29:22.732Z,60.84
2023-03-08T21:31:54.475Z,60.72
2023-03-08T21:34:23.803Z,60.77
2023-03-08T21:36:54.402Z,60.92
2023-03-08T21:39:26.952Z,60.59
2023-03-08T21:41:58.950Z,60.29
2023-03-08T21:44:31.585Z,60.09
2023-03-08T21:47:01.409Z,60.54
2023-03-08T21:49:32.570Z,60.73
2023-03-08T21:52:04.988Z,60.90
2023-03-08T21:54:34.382Z,60.73
2023-03-08T21:57:04.472Z,60.75
2023-03-08T21:59:33.510Z,60.91
2023-03-08T22:02:02.777Z,61.07
2023-03-08T22:04:34.213Z,60.31
2023-03-08T22:07:04.476Z,59.31
2023-03-08T22:09:35.415Z,59.80
2023-03-08T22:12:04.761Z,60.26
2023-03-08T22:14:34.781Z,60.53
2023-03-08T22:17:05.020Z,60.52
2023-03-08T22:19:35.835Z,60.74
2023-03-08T22:22:05.562Z,60.83
2023-03-08T22:24:35.479Z,61.12
2023-03-08T22:27:05.709Z,61.09
2023-03-08T22:29:35.014Z,61.28
2023-03-08T22:32:08.877Z,61.36
2023-03-08T22:34:38.133Z,61.82
2023-03-08T22:37:09.483Z,62.36
2023-03-08T22:39:39.661Z,63.02
2023-03-08T22:42:10.164Z,63.23
2023-03-08T22:44:40.745Z,63.97
2023-03-08T22:47:09.903Z,63.76
2023-03-08T22:49:39.836Z,63.90
2023-03-08T22:52:10.063Z,64.17
2023-03-08T22:54:39.188Z,64.03
2023-03-08T22:57:08.946Z,65.02
2023-03-08T22:59:39.111Z,65.06
2023-03-08T23:02:11.001Z,65.44
2023-03-08T23:04:42.303Z,66.00
2023-03-08T23:07:12.425Z,66.15
2023-03-08T23:09:41.725Z,66.77
2023-03-08T23:12:12.380Z,66.62
2023-03-08T23:14:45.363Z,66.43
2023-03-08T23:17:15.650Z,66.47
2023-03-08T23:19:45.491Z,66.71
2023-03-08T23:22:17.363Z,66.96
2023-03-08T23:24:49.618Z,67.18
2023-03-08T23:27:18.961Z,66.87
2023-03-08T23:29:53.362Z,67.10
2023-03-08T23:32:23.199Z,66.79
2023-03-08T23:34:52.349Z,67.14
2023-03-08T23:37:21.463Z,66.79
2023-03-08T23:39:50.682Z,68.00
2023-03-08T23:42:20.836Z,67.52
2023-03-08T23:44:52.840Z,67.24
2023-03-08T23:47:22.688Z,67.37
2023-03-08T23:49:52.176Z,67.47
2023-03-08T23:52:25.192Z,67.15
2023-03-08T23:54:54.942Z,67.58
2023-03-08T23:57:23.936Z,67.84
2023-03-08T23:59:54.477Z,67.75
